createdAt,value
2017-09-26T20:46:06.581Z,23.62
2017-09-26T20:47:28.192Z,23.62
2017-09-26T20:48:55.534Z,23.62
2017-09-26T20:50:01.214Z,23.63
2017-09-26T20:51:23.183Z,23.48
2017-09-26T20:51:52.709Z,23.41
2017-09-26T20:53:14.657Z,23.27
2017-09-26T20:54:36.750Z,23.17
2017-09-26T20:55:58.739Z,23.06
2017-09-26T20:57:22.297Z,22.96
2017-09-26T20:58:45.032Z,22.93
2017-09-26T21:00:07.721Z,22.88
2017-09-26T21:23:35.260Z,21.82
2017-09-26T21:25:02.333Z,21.82
2017-09-26T21:25:44.180Z,21.80
2017-09-26T21:27:07.974Z,21.79
2017-09-26T21:28:32.260Z,21.77
2017-09-26T21:29:56.765Z,21.75
2017-09-26T21:31:22.291Z,21.72
2017-09-26T21:32:47.668Z,21.67
2017-09-26T21:34:11.707Z,21.61
2017-09-26T21:35:35.592Z,21.57
2017-09-26T21:36:59.296Z,21.54
2017-09-26T21:38:23.098Z,21.50
2017-09-26T21:44:39.919Z,21.39
2017-09-26T21:46:06.513Z,21.40
2017-09-26T21:47:26.945Z,21.39
2017-09-26T21:48:47.350Z,21.39
2017-09-26T21:50:07.699Z,21.39
2017-09-26T21:51:28.476Z,21.40
2017-09-26T21:52:48.853Z,21.43
2017-09-26T21:54:08.989Z,21.45
2017-09-26T21:55:29.130Z,21.45
2017-09-26T21:56:49.359Z,21.45
2017-09-26T21:58:10.255Z,21.45
2017-09-26T21:59:30.401Z,21.45
2017-09-26T22:00:50.782Z,21.43
2017-09-26T22:02:11.055Z,21.43
2017-09-26T22:03:31.298Z,21.45
2017-09-26T22:04:51.586Z,21.42
2017-09-26T22:06:11.857Z,21.40
2017-09-26T22:07:31.991Z,21.39
2017-09-26T22:08:52.349Z,21.39
2017-09-26T22:10:12.488Z,21.37
2017-09-26T22:11:33.423Z,21.36
2017-09-26T22:12:53.780Z,21.36
2017-09-26T22:14:14.734Z,21.36
2017-09-26T22:15:35.059Z,21.33
2017-09-26T22:16:56.663Z,21.32
2017-09-26T22:18:17.733Z,21.32
2017-09-26T22:19:37.923Z,21.30
2017-09-26T22:20:58.224Z,21.29
2017-09-26T22:22:19.217Z,21.27
2017-09-26T22:23:39.458Z,21.27
2017-09-26T22:24:59.872Z,21.24
2017-09-26T22:26:19.954Z,21.24
2017-09-26T22:27:41.115Z,21.24
2017-09-26T22:29:01.353Z,21.22
2017-09-26T22:30:21.722Z,21.21
2017-09-26T22:31:42.124Z,21.22
2017-09-26T22:33:02.491Z,21.20
2017-09-26T22:34:23.671Z,21.18
2017-09-26T22:35:44.072Z,21.18
2017-09-26T22:37:04.443Z,21.17
2017-09-26T22:38:24.877Z,21.15
2017-09-26T22:39:45.016Z,21.14
2017-09-26T22:41:05.257Z,21.14
2017-09-26T22:42:25.431Z,21.11
2017-09-26T22:43:45.700Z,21.11
2017-09-26T22:45:05.960Z,21.09
2017-09-26T22:46:26.124Z,21.09
2017-09-26T22:47:46.356Z,21.07
2017-09-26T22:49:07.334Z,21.07
2017-09-26T22:50:27.676Z,21.06
2017-09-26T22:51:48.634Z,21.06
2017-09-26T22:53:08.853Z,21.03
2017-09-26T22:54:29.116Z,21.03
2017-09-26T22:55:49.350Z,21.02
2017-09-26T22:58:37.584Z,21.00
2017-09-26T22:59:59.019Z,21.00
2017-09-26T23:01:19.074Z,20.99
2017-09-26T23:02:39.404Z,20.99
2017-09-26T23:03:59.859Z,20.97
2017-09-26T23:05:20.170Z,20.96
2017-09-26T23:06:40.533Z,20.96
2017-09-26T23:08:00.778Z,20.95
2017-09-26T23:09:21.003Z,20.93
2017-09-26T23:10:41.286Z,20.92
2017-09-26T23:12:01.539Z,20.92
2017-09-26T23:13:21.553Z,20.90
2017-09-26T23:14:41.909Z,20.90
2017-09-26T23:16:02.528Z,20.88
2017-09-26T23:17:22.615Z,20.88
2017-09-26T23:18:42.923Z,20.87
2017-09-26T23:20:02.943Z,20.85
2017-09-26T23:21:23.679Z,20.85
2017-09-26T23:22:43.998Z,20.85
2017-09-26T23:24:04.247Z,20.84
2017-09-26T23:25:24.318Z,20.84
2017-09-26T23:26:44.632Z,20.84
2017-09-26T23:28:04.786Z,20.84
2017-09-26T23:29:25.015Z,20.81
2017-09-26T23:30:45.214Z,20.81
2017-09-26T23:32:05.845Z,20.81
2017-09-26T23:33:25.847Z,20.80
2017-09-26T23:34:46.232Z,20.78
2017-09-26T23:36:06.644Z,20.78
2017-09-26T23:37:26.618Z,20.78
2017-09-26T23:38:46.620Z,20.77
2017-09-26T23:40:06.908Z,20.77
2017-09-26T23:41:27.176Z,20.75
2017-09-26T23:42:47.262Z,20.74
2017-09-26T23:44:08.489Z,20.72
2017-09-26T23:45:28.790Z,20.72
2017-09-26T23:46:49.147Z,20.72
2017-09-26T23:48:10.357Z,20.70
2017-09-26T23:49:30.791Z,20.70
2017-09-26T23:50:51.251Z,20.69
2017-09-26T23:52:12.142Z,20.67
2017-09-26T23:53:32.217Z,20.69
2017-09-26T23:54:52.616Z,20.67
2017-09-26T23:56:12.676Z,20.66
2017-09-26T23:57:32.930Z,20.66
2017-09-26T23:58:53.322Z,20.65
